createdAt,value
2019-04-21T00:00:37.388Z,14.53
2019-04-21T00:03:16.765Z,26.57
2019-04-21T00:06:01.424Z,18.20
2019-04-21T00:08:41.432Z,15.70
2019-04-21T00:11:04.344Z,19.75
2019-04-21T00:13:25.391Z,19.10
2019-04-21T00:15:48.649Z,16.37
2019-04-21T00:18:42.578Z,20.68
2019-04-21T00:21:13.809Z,18.37
2019-04-21T00:23:51.477Z,23.45
2019-04-21T00:26:24.062Z,21.75
2019-04-21T00:28:59.195Z,18.67
2019-04-21T00:31:24.612Z,20.75
2019-04-21T00:33:39.869Z,22.50
2019-04-21T00:36:13.521Z,20.23
2019-04-21T00:39:07.048Z,21.75
2019-04-21T00:41:29.656Z,15.75
2019-04-21T00:43:55.377Z,20.48
2019-04-21T00:46:26.484Z,22.13
2019-04-21T00:49:00.343Z,17.70
2019-04-21T00:51:43.628Z,18.50
2019-04-21T00:54:13.483Z,16.00
2019-04-21T00:56:46.720Z,18.40
2019-04-21T00:59:13.850Z,18.95
2019-04-21T01:01:38.050Z,18.80
2019-04-21T01:04:09.487Z,28.75
2019-04-21T01:06:42.698Z,16.32
2019-04-21T01:09:07.748Z,15.98
2019-04-21T01:11:44.876Z,20.57
2019-04-21T01:14:12.050Z,22.32
2019-04-21T01:16:45.815Z,16.73
2019-04-21T01:19:13.945Z,18.80
2019-04-21T01:21:24.665Z,16.10
2019-04-21T01:23:55.713Z,22.40
2019-04-21T01:26:32.569Z,16.73
2019-04-21T01:29:14.021Z,19.98
2019-04-21T01:31:42.250Z,22.98
2019-04-21T01:34:14.830Z,22.77
2019-04-21T01:36:45.567Z,20.20
2019-04-21T01:39:22.612Z,18.30
2019-04-21T01:41:52.543Z,18.75
2019-04-21T01:44:24.906Z,20.68
2019-04-21T01:46:48.775Z,21.97
2019-04-21T01:49:18.166Z,17.98
2019-04-21T01:52:08.844Z,22.37
2019-04-21T01:54:52.005Z,19.25
2019-04-21T01:57:17.787Z,18.65
2019-04-21T01:59:48.823Z,21.52
2019-04-21T02:02:26.604Z,23.83
2019-04-21T02:05:06.993Z,22.85
2019-04-21T02:07:27.493Z,20.60
2019-04-21T02:10:03.383Z,20.52
2019-04-21T02:12:29.989Z,20.85
2019-04-21T02:15:08.903Z,21.12
2019-04-21T02:17:29.485Z,18.52
2019-04-21T02:19:55.775Z,22.07
2019-04-21T02:22:54.932Z,20.85
2019-04-21T02:25:11.024Z,21.23
2019-04-21T02:27:39.705Z,24.12
2019-04-21T02:30:12.208Z,23.57
2019-04-21T02:32:47.984Z,28.67
2019-04-21T02:35:24.611Z,22.75
2019-04-21T02:37:53.548Z,23.50
2019-04-21T02:40:25.561Z,18.73
2019-04-21T02:42:56.121Z,25.17
2019-04-21T02:45:23.272Z,22.70
2019-04-21T02:47:53.438Z,22.55
2019-04-21T02:52:50.072Z,21.87
2019-04-21T02:55:25.595Z,26.15
2019-04-21T02:57:59.961Z,22.98
2019-04-21T03:00:33.232Z,23.50
2019-04-21T03:03:36.603Z,28.30
2019-04-21T03:05:58.797Z,25.02
2019-04-21T03:08:42.996Z,23.25
2019-04-21T03:11:09.295Z,22.73
2019-04-21T03:16:20.136Z,22.00
2019-04-21T03:18:39.983Z,26.93
2019-04-21T03:21:07.495Z,22.40
2019-04-21T03:23:54.027Z,25.82
2019-04-21T03:26:27.427Z,22.42
2019-04-21T03:28:37.445Z,22.73
2019-04-21T03:34:18.464Z,21.80
2019-04-21T03:41:31.791Z,28.27
2019-04-21T03:43:44.217Z,25.43
2019-04-21T03:46:20.414Z,25.08
2019-04-21T03:49:04.902Z,26.60
2019-04-21T03:51:21.021Z,24.80
2019-04-21T03:53:48.125Z,25.02
2019-04-21T03:56:27.232Z,23.02
2019-04-21T03:58:59.379Z,21.57
2019-04-21T04:01:23.964Z,25.15
2019-04-21T04:07:11.051Z,21.77
2019-04-21T04:09:52.242Z,21.05
2019-04-21T04:12:20.971Z,23.92
2019-04-21T04:15:08.679Z,21.90
2019-04-21T04:17:16.895Z,38.58
2019-04-21T04:20:00.332Z,27.75
2019-04-21T04:25:03.479Z,27.75
2019-04-21T04:27:52.595Z,23.98
2019-04-21T04:29:59.072Z,34.08
2019-04-21T04:32:32.785Z,29.02
2019-04-21T04:35:03.764Z,27.95
2019-04-21T04:37:32.838Z,32.83
2019-04-21T04:40:27.727Z,26.42
2019-04-21T04:45:40.935Z,32.15
2019-04-21T04:48:11.481Z,21.85
2019-04-21T04:53:32.741Z,24.18
2019-04-21T04:55:46.108Z,24.30
2019-04-21T05:00:42.700Z,22.65
2019-04-21T05:03:19.167Z,25.12
2019-04-21T05:09:03.861Z,24.60
2019-04-21T05:14:03.034Z,25.37
2019-04-21T05:23:48.415Z,24.10
2019-04-21T05:26:14.403Z,25.45
2019-04-21T05:28:44.700Z,26.17
2019-04-21T05:31:42.633Z,25.08
2019-04-21T05:34:12.561Z,27.58
2019-04-21T05:37:02.635Z,29.40
2019-04-21T05:39:33.623Z,21.27
2019-04-21T05:41:54.181Z,23.42
2019-04-21T05:44:56.748Z,24.95
2019-04-21T05:47:20.184Z,24.15
2019-04-21T05:49:52.560Z,28.02
2019-04-21T05:52:21.316Z,21.02
2019-04-21T05:54:57.389Z,24.12
2019-04-21T05:57:24.806Z,22.85
2019-04-21T05:59:53.199Z,24.45
2019-04-21T06:02:29.032Z,26.20
2019-04-21T06:05:24.502Z,36.53
2019-04-21T06:07:28.862Z,24.90
2019-04-21T06:09:59.764Z,22.67
2019-04-21T06:12:38.219Z,21.07
2019-04-21T06:15:01.013Z,28.20
2019-04-21T06:17:35.171Z,28.02
2019-04-21T06:20:07.835Z,20.97
2019-04-21T06:22:33.038Z,21.97
2019-04-21T06:25:37.841Z,21.62
2019-04-21T06:27:42.353Z,21.25
2019-04-21T06:30:03.304Z,24.52
2019-04-21T06:32:47.133Z,27.05
2019-04-21T06:35:45.492Z,23.75
2019-04-21T06:38:01.533Z,18.65
2019-04-21T06:40:38.950Z,25.65
2019-04-21T06:43:10.961Z,19.87
2019-04-21T06:45:34.579Z,20.77
2019-04-21T06:48:04.719Z,19.15
2019-04-21T06:50:39.729Z,17.57
2019-04-21T06:53:07.133Z,22.25
2019-04-21T06:55:35.280Z,25.08
2019-04-21T06:58:08.283Z,18.52
2019-04-21T07:00:35.899Z,24.63
2019-04-21T07:03:16.006Z,19.05
2019-04-21T07:05:44.095Z,21.17
2019-04-21T07:08:21.910Z,19.60
2019-04-21T07:10:41.578Z,21.85
2019-04-21T07:13:07.716Z,18.00
2019-04-21T07:15:43.627Z,19.02
2019-04-21T07:18:17.979Z,20.95
2019-04-21T07:20:49.046Z,16.75
2019-04-21T07:23:16.328Z,19.20
2019-04-21T07:25:48.336Z,18.55
2019-04-21T07:28:21.988Z,20.70
2019-04-21T07:30:56.632Z,23.40
2019-04-21T07:33:47.143Z,29.92
2019-04-21T07:35:54.008Z,21.85
2019-04-21T07:38:24.396Z,31.73
2019-04-21T07:40:48.480Z,26.95
2019-04-21T07:43:16.638Z,20.80
2019-04-21T07:45:49.744Z,19.30
2019-04-21T07:48:26.294Z,28.07
2019-04-21T07:51:14.028Z,21.60
2019-04-21T07:53:55.710Z,21.87
2019-04-21T07:56:07.503Z,18.98
2019-04-21T07:59:00.155Z,19.32
2019-04-21T08:01:24.375Z,20.92
2019-04-21T08:03:57.000Z,19.67
2019-04-21T08:06:28.224Z,20.92
2019-04-21T08:08:55.992Z,20.40
2019-04-21T08:11:19.419Z,21.45
2019-04-21T08:13:57.919Z,25.43
2019-04-21T08:16:35.295Z,19.70
2019-04-21T08:19:05.361Z,21.23
2019-04-21T08:21:33.936Z,22.77
2019-04-21T08:24:04.738Z,19.23
2019-04-21T08:26:39.849Z,20.52
2019-04-21T08:29:14.570Z,19.05
2019-04-21T08:31:42.640Z,25.77
2019-04-21T08:34:09.645Z,20.25
2019-04-21T08:36:35.606Z,19.87
2019-04-21T08:39:08.709Z,20.20
2019-04-21T08:41:40.904Z,21.35
2019-04-21T08:44:16.836Z,21.52
2019-04-21T08:46:46.051Z,23.15
2019-04-21T08:49:15.022Z,21.23
2019-04-21T08:51:50.441Z,19.17
2019-04-21T08:54:18.378Z,29.37
2019-04-21T08:57:18.026Z,20.45
2019-04-21T09:00:03.453Z,20.50
2019-04-21T09:02:35.010Z,21.57
2019-04-21T09:04:59.252Z,21.93
2019-04-21T09:10:02.923Z,20.75
2019-04-21T09:12:34.689Z,24.05
2019-04-21T09:15:08.322Z,18.55
2019-04-21T09:17:31.539Z,25.23
2019-04-21T09:20:13.800Z,19.37
2019-04-21T09:22:37.827Z,18.57
2019-04-21T09:25:09.155Z,18.07
2019-04-21T09:27:36.623Z,17.07
2019-04-21T09:29:55.699Z,20.80
2019-04-21T09:32:26.847Z,16.15
2019-04-21T09:34:53.662Z,28.45
2019-04-21T09:37:32.771Z,16.57
2019-04-21T09:39:57.337Z,18.82
2019-04-21T09:42:32.313Z,15.38
2019-04-21T09:45:00.590Z,15.68
2019-04-21T09:47:35.095Z,17.65
2019-04-21T09:49:58.574Z,18.05
2019-04-21T09:52:37.536Z,19.00
2019-04-21T09:55:07.031Z,21.45
2019-04-21T09:57:40.712Z,18.82
2019-04-21T10:00:11.314Z,17.37
2019-04-21T10:02:38.145Z,17.82
2019-04-21T10:05:03.185Z,18.23
2019-04-21T10:07:37.050Z,21.23
2019-04-21T10:10:03.850Z,16.67
2019-04-21T10:12:33.281Z,16.07
2019-04-21T10:15:02.508Z,16.80
2019-04-21T10:17:35.337Z,15.15
2019-04-21T10:20:05.348Z,20.27
2019-04-21T10:22:35.089Z,17.95
2019-04-21T10:25:04.971Z,57.43
2019-04-21T10:27:34.879Z,15.18
2019-04-21T10:30:05.726Z,14.70
2019-04-21T10:32:36.334Z,16.37
2019-04-21T10:35:07.440Z,17.23
2019-04-21T10:37:47.396Z,14.05
2019-04-21T10:40:09.712Z,17.77
2019-04-21T10:42:40.308Z,16.23
2019-04-21T10:45:10.825Z,16.77
2019-04-21T10:47:41.027Z,13.00
2019-04-21T10:50:10.947Z,22.75
2019-04-21T10:53:00.836Z,16.05
2019-04-21T10:55:44.649Z,15.30
2019-04-21T10:58:18.198Z,14.33
2019-04-21T11:00:48.402Z,13.60
2019-04-21T11:03:31.410Z,13.25
2019-04-21T11:06:01.112Z,14.07
2019-04-21T11:08:35.657Z,11.93
2019-04-21T11:11:01.732Z,58.48
2019-04-21T11:13:31.017Z,15.28
2019-04-21T11:16:01.368Z,13.15
2019-04-21T11:18:31.693Z,13.58
2019-04-21T11:21:01.277Z,19.17
2019-04-21T11:23:37.514Z,14.87
2019-04-21T11:26:06.552Z,13.22
2019-04-21T11:28:36.668Z,14.83
2019-04-21T11:31:07.034Z,17.85
2019-04-21T11:33:35.878Z,19.95
2019-04-21T11:36:04.750Z,15.75
2019-04-21T11:38:58.211Z,14.30
2019-04-21T11:41:10.169Z,14.65
2019-04-21T11:43:39.219Z,13.13
2019-04-21T11:46:08.570Z,16.87
2019-04-21T11:48:37.502Z,18.92
2019-04-21T11:51:06.846Z,20.05
2019-04-21T11:53:36.888Z,15.70
2019-04-21T11:56:06.944Z,17.67
2019-04-21T11:58:36.058Z,13.95
2019-04-21T12:01:05.672Z,16.60
2019-04-21T12:03:35.739Z,16.62
2019-04-21T12:06:05.788Z,15.60
2019-04-21T12:08:40.422Z,12.80
2019-04-21T12:11:05.421Z,11.45
2019-04-21T12:13:34.423Z,14.07
2019-04-21T12:16:03.381Z,12.23
2019-04-21T12:18:33.957Z,10.93
2019-04-21T12:21:03.300Z,11.25
2019-04-21T12:23:32.519Z,15.23
2019-04-21T12:26:01.439Z,16.30
2019-04-21T12:28:30.523Z,10.58
2019-04-21T12:31:00.074Z,11.30
2019-04-21T12:33:54.000Z,11.50
2019-04-21T12:36:24.176Z,13.95
2019-04-21T12:38:56.235Z,13.38
2019-04-21T12:41:24.605Z,24.80
2019-04-21T12:43:54.855Z,24.43
2019-04-21T12:46:23.794Z,15.03
2019-04-21T12:48:53.736Z,8.45
2019-04-21T12:51:23.853Z,16.35
2019-04-21T12:53:53.912Z,9.15
2019-04-21T12:56:23.404Z,12.93
2019-04-21T12:58:53.297Z,14.53
2019-04-21T13:01:23.150Z,48.48
2019-04-21T13:03:52.182Z,13.72
2019-04-21T13:06:21.417Z,38.35
2019-04-21T13:08:57.890Z,18.87
2019-04-21T13:11:21.428Z,11.08
2019-04-21T13:13:50.291Z,12.03
2019-04-21T13:16:19.350Z,14.30
2019-04-21T13:18:49.231Z,13.75
2019-04-21T13:21:18.267Z,11.60
2019-04-21T13:23:47.293Z,9.28
2019-04-21T13:26:27.172Z,12.30
2019-04-21T13:28:47.921Z,14.58
2019-04-21T13:31:18.079Z,10.32
2019-04-21T13:33:48.028Z,12.47
2019-04-21T13:36:18.155Z,9.63
2019-04-21T13:39:39.587Z,10.58
2019-04-21T13:41:50.510Z,9.53
2019-04-21T13:44:13.253Z,7.67
2019-04-21T13:46:42.972Z,8.73
2019-04-21T13:49:11.898Z,7.42
2019-04-21T13:51:41.599Z,7.30
2019-04-21T13:54:11.519Z,16.00
2019-04-21T13:56:40.621Z,9.38
2019-04-21T13:59:10.560Z,8.75
2019-04-21T14:01:39.678Z,7.67
2019-04-21T14:04:09.527Z,8.03
2019-04-21T14:06:38.511Z,7.00
2019-04-21T14:09:09.752Z,7.60
2019-04-21T14:11:38.483Z,7.30
2019-04-21T14:14:08.285Z,6.20
2019-04-21T14:16:38.100Z,7.28
2019-04-21T14:19:07.603Z,7.53
2019-04-21T14:21:37.115Z,12.37
2019-04-21T14:24:06.674Z,6.28
2019-04-21T14:26:36.256Z,6.78
2019-04-21T14:29:07.946Z,8.70
2019-04-21T14:31:38.186Z,7.78
2019-04-21T14:34:08.028Z,9.50
2019-04-21T14:36:37.089Z,11.50
2019-04-21T14:39:10.366Z,7.03
2019-04-21T14:41:40.312Z,6.90
2019-04-21T14:44:09.305Z,6.30
2019-04-21T14:47:03.120Z,6.95
2019-04-21T14:49:44.971Z,7.10
2019-04-21T14:52:17.223Z,10.88
2019-04-21T14:54:50.903Z,9.63
2019-04-21T14:57:21.116Z,6.30
2019-04-21T14:59:51.104Z,10.05
2019-04-21T15:02:20.291Z,8.55
2019-04-21T15:04:49.367Z,5.92
2019-04-21T15:07:19.253Z,7.80
2019-04-21T15:10:01.223Z,15.45
2019-04-21T15:12:18.519Z,6.30
2019-04-21T15:14:47.675Z,7.15
2019-04-21T15:17:19.525Z,9.55
2019-04-21T15:19:50.910Z,6.22
2019-04-21T15:22:18.535Z,13.53
2019-04-21T15:24:48.146Z,10.93
2019-04-21T15:27:16.943Z,9.60
2019-04-21T15:29:46.846Z,10.50
2019-04-21T15:32:16.888Z,12.55
2019-04-21T15:34:46.038Z,10.80
2019-04-21T15:37:15.793Z,57.73
2019-04-21T15:39:44.797Z,18.55
2019-04-21T15:42:14.575Z,21.80
2019-04-21T15:44:44.695Z,11.48
2019-04-21T15:47:13.898Z,9.73
2019-04-21T15:50:03.636Z,12.23
2019-04-21T15:52:29.965Z,9.48
2019-04-21T15:55:06.272Z,6.35
2019-04-21T15:57:54.556Z,8.68
2019-04-21T16:00:30.834Z,9.33
2019-04-21T16:03:00.437Z,11.45
2019-04-21T16:05:30.755Z,13.00
2019-04-21T16:08:00.318Z,71.20
2019-04-21T16:10:40.873Z,37.90
2019-04-21T16:13:01.194Z,31.02
2019-04-21T16:15:30.380Z,10.43
2019-04-21T16:17:59.390Z,7.40
2019-04-21T16:20:28.325Z,7.10
2019-04-21T16:22:57.161Z,9.40
2019-04-21T16:25:26.742Z,5.83
2019-04-21T16:27:55.754Z,6.60
2019-04-21T16:30:25.789Z,6.03
2019-04-21T16:32:54.767Z,6.75
2019-04-21T16:35:25.226Z,5.20
2019-04-21T16:37:57.107Z,6.28
2019-04-21T16:40:25.447Z,8.00
2019-04-21T16:42:54.293Z,32.50
2019-04-21T16:45:23.166Z,12.10
2019-04-21T16:47:53.747Z,8.83
2019-04-21T16:50:23.598Z,8.45
2019-04-21T16:52:56.424Z,27.32
2019-04-21T16:55:30.854Z,10.90
2019-04-21T16:58:23.093Z,7.72
2019-04-21T17:01:00.918Z,7.75
2019-04-21T17:03:24.321Z,9.63
2019-04-21T17:05:54.214Z,7.55
2019-04-21T17:08:24.005Z,8.83
2019-04-21T17:11:05.608Z,8.35
2019-04-21T17:13:24.556Z,12.95
2019-04-21T17:16:16.434Z,8.15
2019-04-21T17:18:39.532Z,9.88
2019-04-21T17:21:00.618Z,8.73
2019-04-21T17:23:25.327Z,8.23
2019-04-21T17:25:55.205Z,8.90
2019-04-21T17:28:23.971Z,7.83
2019-04-21T17:30:52.804Z,7.58
2019-04-21T17:33:27.888Z,13.68
2019-04-21T17:35:56.640Z,7.58
2019-04-21T17:38:26.011Z,11.35
2019-04-21T17:40:57.078Z,16.40
2019-04-21T17:43:25.756Z,9.43
2019-04-21T17:45:55.204Z,7.35
2019-04-21T17:48:25.148Z,6.72
2019-04-21T17:51:03.330Z,12.45
2019-04-21T17:53:48.229Z,7.25
2019-04-21T17:56:48.085Z,8.80
2019-04-21T17:59:02.925Z,6.90
2019-04-21T18:01:39.312Z,11.25
2019-04-21T18:04:12.313Z,7.90
2019-04-21T18:06:56.483Z,12.50
2019-04-21T18:09:36.472Z,30.20
2019-04-21T18:12:03.115Z,12.00
2019-04-21T18:14:13.732Z,10.25
2019-04-21T18:16:45.384Z,8.70
2019-04-21T18:19:13.082Z,9.13
2019-04-21T18:21:59.825Z,10.75
2019-04-21T18:24:36.676Z,10.48
2019-04-21T18:27:00.165Z,12.23
2019-04-21T18:29:27.678Z,11.65
2019-04-21T18:31:57.991Z,11.43
2019-04-21T18:34:47.777Z,9.50
2019-04-21T18:37:39.515Z,20.17
2019-04-21T18:40:12.270Z,15.63
2019-04-21T18:42:57.485Z,12.13
2019-04-21T18:45:47.970Z,18.75
2019-04-21T18:48:28.658Z,22.17
2019-04-21T18:51:15.239Z,15.05
2019-04-21T18:54:02.177Z,16.67
2019-04-21T18:56:18.881Z,16.25
2019-04-21T18:58:46.689Z,19.87
2019-04-21T19:01:22.476Z,14.98
2019-04-21T19:03:50.040Z,15.58
2019-04-21T19:06:26.716Z,14.18
2019-04-21T19:09:10.888Z,17.92
2019-04-21T19:11:33.720Z,20.60
2019-04-21T19:14:26.060Z,18.73
2019-04-21T19:16:53.933Z,17.80
2019-04-21T19:21:52.508Z,19.90
2019-04-21T19:24:22.884Z,21.80
2019-04-21T19:29:33.618Z,22.45
2019-04-21T19:31:54.956Z,29.02
2019-04-21T19:34:12.903Z,26.87
2019-04-21T19:36:37.125Z,31.10
2019-04-21T19:39:15.194Z,35.28
2019-04-21T19:41:52.223Z,44.03
2019-04-21T19:44:29.371Z,31.27
2019-04-21T19:46:58.708Z,31.12
2019-04-21T19:49:33.534Z,30.37
2019-04-21T19:51:52.349Z,30.75
2019-04-21T19:54:22.391Z,27.30
2019-04-21T19:56:44.813Z,31.12
2019-04-21T19:59:23.848Z,29.57
2019-04-21T20:01:46.787Z,33.23
2019-04-21T20:04:16.695Z,35.43
2019-04-21T20:06:58.432Z,30.70
2019-04-21T20:09:32.525Z,35.78
2019-04-21T20:11:59.145Z,38.35
2019-04-21T20:14:49.284Z,40.25
2019-04-21T20:17:01.948Z,38.30
2019-04-21T20:19:19.662Z,34.90
2019-04-21T20:21:49.198Z,39.35
2019-04-21T20:24:24.343Z,40.05
2019-04-21T20:27:01.268Z,43.70
2019-04-21T20:29:37.685Z,38.13
2019-04-21T20:32:08.375Z,39.60
2019-04-21T20:34:40.018Z,36.28
2019-04-21T20:37:09.344Z,39.45
2019-04-21T20:39:25.429Z,41.95
2019-04-21T20:42:04.151Z,33.65
2019-04-21T20:44:40.250Z,38.80
2019-04-21T20:47:03.792Z,40.95
2019-04-21T20:49:34.133Z,39.03
2019-04-21T20:52:17.517Z,36.15
2019-04-21T20:54:40.805Z,33.67
2019-04-21T20:57:13.391Z,43.20
2019-04-21T20:59:37.518Z,52.08
2019-04-21T21:02:11.997Z,39.92
2019-04-21T21:04:32.687Z,36.20
2019-04-21T21:07:30.556Z,37.50
2019-04-21T21:09:46.196Z,40.25
2019-04-21T21:12:40.733Z,40.25
2019-04-21T21:14:42.191Z,45.48
2019-04-21T21:17:33.979Z,45.35
2019-04-21T21:19:55.790Z,38.78
2019-04-21T21:22:09.686Z,49.25
2019-04-21T21:24:49.687Z,44.85
2019-04-21T21:27:14.261Z,40.00
2019-04-21T21:29:49.877Z,42.67
2019-04-21T21:32:24.162Z,46.58
2019-04-21T21:34:49.730Z,46.10
2019-04-21T21:37:29.296Z,47.30
2019-04-21T21:40:01.119Z,47.23
2019-04-21T21:42:07.326Z,45.98
2019-04-21T21:44:35.748Z,42.13
2019-04-21T21:47:23.072Z,45.75
2019-04-21T21:49:52.869Z,43.08
2019-04-21T21:52:16.889Z,42.35
2019-04-21T21:54:37.932Z,44.70
2019-04-21T21:57:06.675Z,41.65
2019-04-21T21:59:38.222Z,41.88
2019-04-21T22:02:09.550Z,55.08
2019-04-21T22:04:37.899Z,54.23
2019-04-21T22:07:13.579Z,54.80
2019-04-21T22:09:37.319Z,56.80
2019-04-21T22:12:07.222Z,64.37
2019-04-21T22:14:41.592Z,58.10
2019-04-21T22:17:21.769Z,170.95
2019-04-21T22:20:05.280Z,68.35
2019-04-21T22:22:22.848Z,56.80
2019-04-21T22:24:52.419Z,52.13
2019-04-21T22:27:09.504Z,53.87
2019-04-21T22:29:45.425Z,48.70
2019-04-21T22:32:14.888Z,49.15
2019-04-21T22:34:49.819Z,42.98
2019-04-21T22:37:28.941Z,50.50
2019-04-21T22:39:54.342Z,52.10
2019-04-21T22:42:18.958Z,54.98
2019-04-21T22:44:42.782Z,51.23
2019-04-21T22:47:17.761Z,53.85
2019-04-21T22:49:42.203Z,56.63
2019-04-21T22:52:16.700Z,57.38
2019-04-21T22:54:44.570Z,54.35
2019-04-21T22:57:17.575Z,52.40
2019-04-21T22:59:45.380Z,49.80
2019-04-21T23:02:22.617Z,60.60
2019-04-21T23:04:50.874Z,51.83
2019-04-21T23:07:20.755Z,54.98
2019-04-21T23:09:49.418Z,50.00
2019-04-21T23:12:20.421Z,50.08
2019-04-21T23:14:57.411Z,50.30
2019-04-21T23:17:42.254Z,46.08
2019-04-21T23:20:08.841Z,45.75
2019-04-21T23:22:46.799Z,48.90
2019-04-21T23:25:09.126Z,48.95
2019-04-21T23:27:40.437Z,42.88
2019-04-21T23:30:20.255Z,44.90
2019-04-21T23:32:36.243Z,45.03
2019-04-21T23:34:56.103Z,40.75
2019-04-21T23:37:27.184Z,45.25
2019-04-21T23:40:01.085Z,42.93
2019-04-21T23:42:32.801Z,38.80
2019-04-21T23:44:58.538Z,40.20
2019-04-21T23:47:39.611Z,36.35
2019-04-21T23:50:07.401Z,38.40
2019-04-21T23:52:29.844Z,42.05
2019-04-21T23:54:59.148Z,40.83
2019-04-21T23:57:34.364Z,42.33
2019-04-21T23:59:59.650Z,44.20
